sensor_id;sensor_type;location;lat;lon;timestamp;P1;durP1;ratioP1;P2;durP2;ratioP2
18596;SDS011;9428;50.950;6.912;2023-02-12T00:01:16;66.13;;;30.27;;
18596;SDS011;9428;50.950;6.912;2023-02-12T00:04:04;54.17;;;28.57;;
18596;SDS011;9428;50.950;6.912;2023-02-12T00:06:52;55.23;;;28.17;;
18596;SDS011;9428;50.950;6.912;2023-02-12T00:09:39;60.70;;;29.27;;
18596;SDS011;9428;50.950;6.912;2023-02-12T00:12:26;56.97;;;29.42;;
18596;SDS011;9428;50.950;6.912;2023-02-12T00:15:15;58.33;;;29.27;;
18596;SDS011;9428;50.950;6.912;2023-02-12T00:18:02;56.50;;;28.93;;
18596;SDS011;9428;50.950;6.912;2023-02-12T00:20:50;55.28;;;29.33;;
18596;SDS011;9428;50.950;6.912;2023-02-12T00:23:37;64.13;;;29.67;;
18596;SDS011;9428;50.950;6.912;2023-02-12T00:26:26;66.10;;;31.55;;
18596;SDS011;9428;50.950;6.912;2023-02-12T00:29:14;63.40;;;30.77;;
18596;SDS011;9428;50.950;6.912;2023-02-12T00:32:02;61.17;;;30.70;;
18596;SDS011;9428;50.950;6.912;2023-02-12T00:34:50;59.73;;;28.73;;
18596;SDS011;9428;50.950;6.912;2023-02-12T00:37:37;60.58;;;29.48;;
18596;SDS011;9428;50.950;6.912;2023-02-12T00:40:25;59.70;;;30.23;;
18596;SDS011;9428;50.950;6.912;2023-02-12T00:43:12;59.33;;;28.38;;
18596;SDS011;9428;50.950;6.912;2023-02-12T00:45:59;58.30;;;28.50;;
18596;SDS011;9428;50.950;6.912;2023-02-12T00:48:48;60.97;;;29.65;;
18596;SDS011;9428;50.950;6.912;2023-02-12T00:51:35;61.85;;;30.52;;
18596;SDS011;9428;50.950;6.912;2023-02-12T00:54:23;61.50;;;29.95;;
18596;SDS011;9428;50.950;6.912;2023-02-12T00:57:11;62.28;;;30.63;;
18596;SDS011;9428;50.950;6.912;2023-02-12T00:59:58;60.17;;;30.40;;
18596;SDS011;9428;50.950;6.912;2023-02-12T01:02:46;60.90;;;29.93;;
18596;SDS011;9428;50.950;6.912;2023-02-12T01:05:34;57.63;;;29.27;;
18596;SDS011;9428;50.950;6.912;2023-02-12T01:08:22;62.25;;;32.22;;
18596;SDS011;9428;50.950;6.912;2023-02-12T01:11:11;65.25;;;31.63;;
18596;SDS011;9428;50.950;6.912;2023-02-12T01:13:58;60.78;;;30.38;;
18596;SDS011;9428;50.950;6.912;2023-02-12T01:16:46;69.37;;;31.00;;
18596;SDS011;9428;50.950;6.912;2023-02-12T01:19:33;65.32;;;30.95;;
18596;SDS011;9428;50.950;6.912;2023-02-12T01:22:22;65.05;;;30.38;;
18596;SDS011;9428;50.950;6.912;2023-02-12T01:25:10;72.80;;;31.17;;
18596;SDS011;9428;50.950;6.912;2023-02-12T01:28:10;61.38;;;30.75;;
18596;SDS011;9428;50.950;6.912;2023-02-12T01:31:00;62.58;;;31.55;;
18596;SDS011;9428;50.950;6.912;2023-02-12T01:33:49;66.60;;;32.50;;
18596;SDS011;9428;50.950;6.912;2023-02-12T01:36:38;61.40;;;30.37;;
18596;SDS011;9428;50.950;6.912;2023-02-12T01:39:27;57.90;;;28.87;;
18596;SDS011;9428;50.950;6.912;2023-02-12T01:42:14;61.05;;;29.75;;
18596;SDS011;9428;50.950;6.912;2023-02-12T01:48:31;71.83;;;32.23;;
18596;SDS011;9428;50.950;6.912;2023-02-12T01:51:22;66.45;;;30.80;;
18596;SDS011;9428;50.950;6.912;2023-02-12T01:54:12;62.78;;;30.85;;
18596;SDS011;9428;50.950;6.912;2023-02-12T01:57:06;63.08;;;28.60;;
18596;SDS011;9428;50.950;6.912;2023-02-12T01:59:55;65.90;;;31.50;;
18596;SDS011;9428;50.950;6.912;2023-02-12T02:02:45;63.05;;;31.63;;
18596;SDS011;9428;50.950;6.912;2023-02-12T02:05:37;63.17;;;31.23;;
18596;SDS011;9428;50.950;6.912;2023-02-12T02:08:32;62.88;;;30.65;;
18596;SDS011;9428;50.950;6.912;2023-02-12T02:11:20;64.40;;;30.15;;
18596;SDS011;9428;50.950;6.912;2023-02-12T02:14:25;70.47;;;30.77;;
18596;SDS011;9428;50.950;6.912;2023-02-12T02:17:30;64.07;;;29.95;;
18596;SDS011;9428;50.950;6.912;2023-02-12T02:20:47;65.00;;;30.85;;
18596;SDS011;9428;50.950;6.912;2023-02-12T02:27:29;63.10;;;31.33;;
18596;SDS011;9428;50.950;6.912;2023-02-12T02:30:29;67.32;;;31.15;;
18596;SDS011;9428;50.950;6.912;2023-02-12T02:33:30;61.20;;;30.90;;
18596;SDS011;9428;50.950;6.912;2023-02-12T02:36:26;63.33;;;29.95;;
18596;SDS011;9428;50.950;6.912;2023-02-12T02:39:18;64.07;;;31.13;;
18596;SDS011;9428;50.950;6.912;2023-02-12T02:42:14;62.97;;;29.93;;
18596;SDS011;9428;50.950;6.912;2023-02-12T02:45:06;71.45;;;29.40;;
18596;SDS011;9428;50.950;6.912;2023-02-12T02:48:00;60.97;;;29.47;;
18596;SDS011;9428;50.950;6.912;2023-02-12T02:50:51;59.22;;;29.60;;
18596;SDS011;9428;50.950;6.912;2023-02-12T02:53:42;59.08;;;29.83;;
18596;SDS011;9428;50.950;6.912;2023-02-12T02:56:34;62.43;;;30.93;;
18596;SDS011;9428;50.950;6.912;2023-02-12T02:59:25;66.37;;;30.30;;
18596;SDS011;9428;50.950;6.912;2023-02-12T03:02:19;69.72;;;31.08;;
18596;SDS011;9428;50.950;6.912;2023-02-12T03:05:12;69.70;;;31.58;;
18596;SDS011;9428;50.950;6.912;2023-02-12T03:08:04;65.28;;;31.92;;
18596;SDS011;9428;50.950;6.912;2023-02-12T03:10:57;65.00;;;30.77;;
18596;SDS011;9428;50.950;6.912;2023-02-12T03:13:49;63.78;;;31.48;;
18596;SDS011;9428;50.950;6.912;2023-02-12T03:16:43;62.88;;;31.55;;
18596;SDS011;9428;50.950;6.912;2023-02-12T03:19:36;60.50;;;28.60;;
18596;SDS011;9428;50.950;6.912;2023-02-12T03:22:29;63.13;;;30.23;;
18596;SDS011;9428;50.950;6.912;2023-02-12T03:25:19;58.93;;;30.00;;
18596;SDS011;9428;50.950;6.912;2023-02-12T03:28:10;62.42;;;30.73;;
18596;SDS011;9428;50.950;6.912;2023-02-12T03:31:03;57.08;;;28.92;;
18596;SDS011;9428;50.950;6.912;2023-02-12T03:34:00;57.67;;;28.55;;
18596;SDS011;9428;50.950;6.912;2023-02-12T03:36:54;56.33;;;29.52;;
18596;SDS011;9428;50.950;6.912;2023-02-12T03:39:50;59.63;;;29.27;;
18596;SDS011;9428;50.950;6.912;2023-02-12T03:42:44;65.90;;;29.93;;
18596;SDS011;9428;50.950;6.912;2023-02-12T03:45:38;63.23;;;30.07;;
18596;SDS011;9428;50.950;6.912;2023-02-12T03:48:30;56.87;;;29.67;;
18596;SDS011;9428;50.950;6.912;2023-02-12T03:51:22;56.00;;;29.27;;
18596;SDS011;9428;50.950;6.912;2023-02-12T03:54:16;64.18;;;30.67;;
18596;SDS011;9428;50.950;6.912;2023-02-12T03:57:08;67.78;;;30.35;;
18596;SDS011;9428;50.950;6.912;2023-02-12T04:00:00;57.60;;;28.60;;
18596;SDS011;9428;50.950;6.912;2023-02-12T04:02:50;57.60;;;27.83;;
18596;SDS011;9428;50.950;6.912;2023-02-12T04:05:38;58.55;;;27.52;;
18596;SDS011;9428;50.950;6.912;2023-02-12T04:08:26;59.42;;;28.88;;
18596;SDS011;9428;50.950;6.912;2023-02-12T04:11:17;56.20;;;28.07;;
18596;SDS011;9428;50.950;6.912;2023-02-12T04:14:17;62.80;;;28.38;;
18596;SDS011;9428;50.950;6.912;2023-02-12T04:17:12;58.97;;;29.13;;
18596;SDS011;9428;50.950;6.912;2023-02-12T04:20:07;65.25;;;29.65;;
18596;SDS011;9428;50.950;6.912;2023-02-12T04:23:01;57.83;;;28.93;;
18596;SDS011;9428;50.950;6.912;2023-02-12T04:25:58;63.60;;;29.55;;
18596;SDS011;9428;50.950;6.912;2023-02-12T04:28:59;59.60;;;28.35;;
18596;SDS011;9428;50.950;6.912;2023-02-12T04:31:56;57.63;;;27.52;;
18596;SDS011;9428;50.950;6.912;2023-02-12T04:34:50;59.97;;;28.95;;
18596;SDS011;9428;50.950;6.912;2023-02-12T04:37:44;59.42;;;28.65;;
18596;SDS011;9428;50.950;6.912;2023-02-12T04:40:35;53.95;;;28.00;;
18596;SDS011;9428;50.950;6.912;2023-02-12T04:43:25;59.47;;;29.73;;
18596;SDS011;9428;50.950;6.912;2023-02-12T04:46:14;60.33;;;29.08;;
18596;SDS011;9428;50.950;6.912;2023-02-12T04:49:02;55.90;;;28.80;;
18596;SDS011;9428;50.950;6.912;2023-02-12T04:51:50;55.67;;;28.42;;
18596;SDS011;9428;50.950;6.912;2023-02-12T04:54:37;59.53;;;29.67;;
18596;SDS011;9428;50.950;6.912;2023-02-12T04:57:25;54.80;;;27.13;;
18596;SDS011;9428;50.950;6.912;2023-02-12T05:00:12;59.75;;;29.27;;
18596;SDS011;9428;50.950;6.912;2023-02-12T05:03:00;61.38;;;29.58;;
18596;SDS011;9428;50.950;6.912;2023-02-12T05:05:49;57.97;;;28.67;;
18596;SDS011;9428;50.950;6.912;2023-02-12T05:08:37;67.27;;;31.53;;
18596;SDS011;9428;50.950;6.912;2023-02-12T05:11:24;64.53;;;29.40;;
18596;SDS011;9428;50.950;6.912;2023-02-12T05:14:11;55.90;;;28.90;;
18596;SDS011;9428;50.950;6.912;2023-02-12T05:16:58;62.88;;;31.00;;
18596;SDS011;9428;50.950;6.912;2023-02-12T05:19:46;64.50;;;31.73;;
18596;SDS011;9428;50.950;6.912;2023-02-12T05:22:35;63.50;;;30.88;;
18596;SDS011;9428;50.950;6.912;2023-02-12T05:25:22;60.08;;;31.88;;
18596;SDS011;9428;50.950;6.912;2023-02-12T05:28:10;58.87;;;29.80;;
18596;SDS011;9428;50.950;6.912;2023-02-12T05:30:58;63.47;;;30.85;;
18596;SDS011;9428;50.950;6.912;2023-02-12T05:33:46;60.42;;;30.67;;
18596;SDS011;9428;50.950;6.912;2023-02-12T05:36:34;60.30;;;30.95;;
18596;SDS011;9428;50.950;6.912;2023-02-12T05:39:23;56.03;;;29.47;;
18596;SDS011;9428;50.950;6.912;2023-02-12T05:42:10;63.92;;;30.48;;
18596;SDS011;9428;50.950;6.912;2023-02-12T05:44:57;60.77;;;29.80;;
18596;SDS011;9428;50.950;6.912;2023-02-12T05:47:45;67.78;;;30.40;;
18596;SDS011;9428;50.950;6.912;2023-02-12T05:50:32;58.22;;;30.23;;
18596;SDS011;9428;50.950;6.912;2023-02-12T05:53:19;62.53;;;29.35;;
18596;SDS011;9428;50.950;6.912;2023-02-12T05:56:09;55.20;;;30.00;;
18596;SDS011;9428;50.950;6.912;2023-02-12T05:58:58;56.97;;;28.80;;
18596;SDS011;9428;50.950;6.912;2023-02-12T06:01:48;59.72;;;28.92;;
18596;SDS011;9428;50.950;6.912;2023-02-12T06:04:36;61.47;;;28.45;;
18596;SDS011;9428;50.950;6.912;2023-02-12T06:07:24;56.88;;;28.42;;
18596;SDS011;9428;50.950;6.912;2023-02-12T06:10:11;59.63;;;30.33;;
18596;SDS011;9428;50.950;6.912;2023-02-12T06:13:00;63.38;;;30.80;;
18596;SDS011;9428;50.950;6.912;2023-02-12T06:15:47;59.17;;;30.47;;
18596;SDS011;9428;50.950;6.912;2023-02-12T06:18:34;58.28;;;27.95;;
18596;SDS011;9428;50.950;6.912;2023-02-12T06:21:24;57.80;;;29.53;;
18596;SDS011;9428;50.950;6.912;2023-02-12T06:24:12;62.03;;;29.70;;
18596;SDS011;9428;50.950;6.912;2023-02-12T06:27:00;58.10;;;30.77;;
18596;SDS011;9428;50.950;6.912;2023-02-12T06:29:49;65.38;;;31.35;;
18596;SDS011;9428;50.950;6.912;2023-02-12T06:32:36;68.77;;;32.40;;
18596;SDS011;9428;50.950;6.912;2023-02-12T06:35:23;68.07;;;32.40;;
18596;SDS011;9428;50.950;6.912;2023-02-12T06:38:11;59.83;;;30.53;;
18596;SDS011;9428;50.950;6.912;2023-02-12T06:41:00;59.63;;;30.05;;
18596;SDS011;9428;50.950;6.912;2023-02-12T06:43:47;57.78;;;28.65;;
18596;SDS011;9428;50.950;6.912;2023-02-12T06:46:36;55.75;;;28.52;;
18596;SDS011;9428;50.950;6.912;2023-02-12T06:49:24;55.95;;;28.88;;
18596;SDS011;9428;50.950;6.912;2023-02-12T06:52:11;61.57;;;30.73;;
18596;SDS011;9428;50.950;6.912;2023-02-12T06:54:59;68.78;;;30.70;;
18596;SDS011;9428;50.950;6.912;2023-02-12T06:57:46;58.70;;;29.13;;
18596;SDS011;9428;50.950;6.912;2023-02-12T07:00:34;61.28;;;30.02;;
18596;SDS011;9428;50.950;6.912;2023-02-12T07:03:22;57.67;;;29.30;;
18596;SDS011;9428;50.950;6.912;2023-02-12T07:06:10;64.53;;;29.43;;
18596;SDS011;9428;50.950;6.912;2023-02-12T07:08:57;61.75;;;30.58;;
18596;SDS011;9428;50.950;6.912;2023-02-12T07:11:45;58.67;;;29.73;;
18596;SDS011;9428;50.950;6.912;2023-02-12T07:14:32;55.17;;;27.03;;
18596;SDS011;9428;50.950;6.912;2023-02-12T07:17:19;63.00;;;29.73;;
18596;SDS011;9428;50.950;6.912;2023-02-12T07:20:11;55.57;;;28.20;;
18596;SDS011;9428;50.950;6.912;2023-02-12T07:22:59;59.17;;;28.85;;
18596;SDS011;9428;50.950;6.912;2023-02-12T07:25:53;52.60;;;26.45;;
18596;SDS011;9428;50.950;6.912;2023-02-12T07:28:42;57.95;;;28.67;;
18596;SDS011;9428;50.950;6.912;2023-02-12T07:31:29;54.67;;;28.52;;
18596;SDS011;9428;50.950;6.912;2023-02-12T07:34:17;62.25;;;30.08;;
18596;SDS011;9428;50.950;6.912;2023-02-12T07:37:05;63.67;;;29.63;;
18596;SDS011;9428;50.950;6.912;2023-02-12T07:39:53;59.28;;;28.42;;
18596;SDS011;9428;50.950;6.912;2023-02-12T07:42:40;60.05;;;29.25;;
18596;SDS011;9428;50.950;6.912;2023-02-12T07:45:27;59.53;;;29.63;;
18596;SDS011;9428;50.950;6.912;2023-02-12T07:48:15;62.33;;;30.67;;
18596;SDS011;9428;50.950;6.912;2023-02-12T07:51:03;56.10;;;28.85;;
18596;SDS011;9428;50.950;6.912;2023-02-12T07:53:53;53.20;;;27.98;;
18596;SDS011;9428;50.950;6.912;2023-02-12T07:56:41;45.00;;;26.17;;
18596;SDS011;9428;50.950;6.912;2023-02-12T07:59:34;49.22;;;26.77;;
18596;SDS011;9428;50.950;6.912;2023-02-12T08:02:21;50.17;;;26.10;;
18596;SDS011;9428;50.950;6.912;2023-02-12T08:05:10;48.33;;;25.03;;
18596;SDS011;9428;50.950;6.912;2023-02-12T08:07:57;45.27;;;24.27;;
18596;SDS011;9428;50.950;6.912;2023-02-12T08:10:46;44.28;;;23.38;;
18596;SDS011;9428;50.950;6.912;2023-02-12T08:13:33;46.57;;;23.17;;
18596;SDS011;9428;50.950;6.912;2023-02-12T08:16:21;44.43;;;25.83;;
18596;SDS011;9428;50.950;6.912;2023-02-12T08:19:10;39.75;;;23.58;;
18596;SDS011;9428;50.950;6.912;2023-02-12T08:21:57;45.40;;;25.73;;
18596;SDS011;9428;50.950;6.912;2023-02-12T08:24:46;43.28;;;23.80;;
18596;SDS011;9428;50.950;6.912;2023-02-12T08:27:35;43.73;;;24.90;;
18596;SDS011;9428;50.950;6.912;2023-02-12T08:30:23;43.85;;;24.77;;
18596;SDS011;9428;50.950;6.912;2023-02-12T08:33:10;46.00;;;24.98;;
18596;SDS011;9428;50.950;6.912;2023-02-12T08:36:01;49.10;;;25.27;;
18596;SDS011;9428;50.950;6.912;2023-02-12T08:38:50;43.50;;;24.48;;
18596;SDS011;9428;50.950;6.912;2023-02-12T08:41:37;50.42;;;26.17;;
18596;SDS011;9428;50.950;6.912;2023-02-12T08:44:28;43.70;;;23.98;;
18596;SDS011;9428;50.950;6.912;2023-02-12T08:47:15;49.10;;;25.83;;
18596;SDS011;9428;50.950;6.912;2023-02-12T08:50:03;47.70;;;25.75;;
18596;SDS011;9428;50.950;6.912;2023-02-12T08:52:51;50.95;;;26.40;;
18596;SDS011;9428;50.950;6.912;2023-02-12T08:55:38;50.92;;;26.48;;
18596;SDS011;9428;50.950;6.912;2023-02-12T08:58:26;50.05;;;26.48;;
18596;SDS011;9428;50.950;6.912;2023-02-12T09:01:15;51.83;;;27.50;;
18596;SDS011;9428;50.950;6.912;2023-02-12T09:04:05;50.15;;;26.35;;
18596;SDS011;9428;50.950;6.912;2023-02-12T09:06:53;48.28;;;25.45;;
18596;SDS011;9428;50.950;6.912;2023-02-12T09:09:42;48.70;;;26.20;;
18596;SDS011;9428;50.950;6.912;2023-02-12T09:12:29;49.10;;;26.48;;
18596;SDS011;9428;50.950;6.912;2023-02-12T09:15:16;47.58;;;27.00;;
18596;SDS011;9428;50.950;6.912;2023-02-12T09:18:06;49.33;;;25.55;;
18596;SDS011;9428;50.950;6.912;2023-02-12T09:20:54;54.40;;;27.90;;
18596;SDS011;9428;50.950;6.912;2023-02-12T09:23:46;48.60;;;26.65;;
18596;SDS011;9428;50.950;6.912;2023-02-12T09:26:34;49.20;;;26.90;;
18596;SDS011;9428;50.950;6.912;2023-02-12T09:29:21;52.35;;;28.33;;
18596;SDS011;9428;50.950;6.912;2023-02-12T09:32:09;57.88;;;29.13;;
18596;SDS011;9428;50.950;6.912;2023-02-12T09:34:57;51.38;;;28.10;;
18596;SDS011;9428;50.950;6.912;2023-02-12T09:37:44;56.42;;;29.15;;
18596;SDS011;9428;50.950;6.912;2023-02-12T09:40:32;58.85;;;27.10;;
18596;SDS011;9428;50.950;6.912;2023-02-12T09:43:25;60.47;;;29.83;;
18596;SDS011;9428;50.950;6.912;2023-02-12T09:46:20;58.30;;;30.25;;
18596;SDS011;9428;50.950;6.912;2023-02-12T09:49:18;55.58;;;29.60;;
18596;SDS011;9428;50.950;6.912;2023-02-12T09:52:18;60.35;;;30.27;;
18596;SDS011;9428;50.950;6.912;2023-02-12T09:55:09;54.05;;;29.13;;
18596;SDS011;9428;50.950;6.912;2023-02-12T09:58:00;54.70;;;30.25;;
18596;SDS011;9428;50.950;6.912;2023-02-12T10:00:52;50.33;;;28.95;;
18596;SDS011;9428;50.950;6.912;2023-02-12T10:03:39;53.92;;;29.98;;
18596;SDS011;9428;50.950;6.912;2023-02-12T10:06:28;50.75;;;29.95;;
18596;SDS011;9428;50.950;6.912;2023-02-12T10:09:38;58.05;;;29.02;;
18596;SDS011;9428;50.950;6.912;2023-02-12T10:12:38;60.63;;;30.02;;
18596;SDS011;9428;50.950;6.912;2023-02-12T10:15:34;61.70;;;30.23;;
18596;SDS011;9428;50.950;6.912;2023-02-12T10:18:44;60.28;;;30.90;;
18596;SDS011;9428;50.950;6.912;2023-02-12T10:21:43;55.53;;;29.13;;
18596;SDS011;9428;50.950;6.912;2023-02-12T10:27:49;46.95;;;28.52;;
18596;SDS011;9428;50.950;6.912;2023-02-12T10:30:39;56.13;;;29.95;;
18596;SDS011;9428;50.950;6.912;2023-02-12T10:33:33;51.00;;;29.13;;
18596;SDS011;9428;50.950;6.912;2023-02-12T10:36:26;56.65;;;27.58;;
18596;SDS011;9428;50.950;6.912;2023-02-12T10:39:23;53.40;;;28.33;;
18596;SDS011;9428;50.950;6.912;2023-02-12T10:42:16;53.90;;;28.45;;
18596;SDS011;9428;50.950;6.912;2023-02-12T10:45:05;51.92;;;28.63;;
18596;SDS011;9428;50.950;6.912;2023-02-12T10:48:03;55.30;;;30.70;;
18596;SDS011;9428;50.950;6.912;2023-02-12T10:51:01;50.75;;;28.08;;
18596;SDS011;9428;50.950;6.912;2023-02-12T10:53:58;47.67;;;26.08;;
18596;SDS011;9428;50.950;6.912;2023-02-12T10:57:21;49.90;;;24.92;;
18596;SDS011;9428;50.950;6.912;2023-02-12T11:00:14;46.13;;;23.25;;
18596;SDS011;9428;50.950;6.912;2023-02-12T11:03:17;51.75;;;24.55;;
18596;SDS011;9428;50.950;6.912;2023-02-12T11:06:11;42.53;;;23.88;;
18596;SDS011;9428;50.950;6.912;2023-02-12T11:09:00;46.08;;;25.85;;
18596;SDS011;9428;50.950;6.912;2023-02-12T11:11:48;44.60;;;24.73;;
18596;SDS011;9428;50.950;6.912;2023-02-12T11:14:37;46.35;;;24.35;;
18596;SDS011;9428;50.950;6.912;2023-02-12T11:17:29;44.45;;;24.35;;
18596;SDS011;9428;50.950;6.912;2023-02-12T11:20:24;41.55;;;22.23;;
18596;SDS011;9428;50.950;6.912;2023-02-12T11:23:22;43.33;;;23.98;;
18596;SDS011;9428;50.950;6.912;2023-02-12T11:29:18;40.22;;;22.05;;
18596;SDS011;9428;50.950;6.912;2023-02-12T11:32:15;43.60;;;21.33;;
18596;SDS011;9428;50.950;6.912;2023-02-12T11:35:04;38.53;;;20.63;;
18596;SDS011;9428;50.950;6.912;2023-02-12T11:37:56;39.03;;;22.60;;
18596;SDS011;9428;50.950;6.912;2023-02-12T11:40:45;43.72;;;23.30;;
18596;SDS011;9428;50.950;6.912;2023-02-12T11:43:34;43.40;;;23.67;;
18596;SDS011;9428;50.950;6.912;2023-02-12T11:46:24;37.45;;;21.92;;
18596;SDS011;9428;50.950;6.912;2023-02-12T11:49:16;41.85;;;22.08;;
18596;SDS011;9428;50.950;6.912;2023-02-12T11:52:06;43.58;;;23.90;;
18596;SDS011;9428;50.950;6.912;2023-02-12T11:55:07;45.35;;;23.15;;
18596;SDS011;9428;50.950;6.912;2023-02-12T11:58:12;32.42;;;16.73;;
18596;SDS011;9428;50.950;6.912;2023-02-12T12:01:03;39.63;;;19.13;;
18596;SDS011;9428;50.950;6.912;2023-02-12T12:03:56;44.40;;;23.45;;
18596;SDS011;9428;50.950;6.912;2023-02-12T12:06:50;42.03;;;22.85;;
18596;SDS011;9428;50.950;6.912;2023-02-12T12:09:42;43.88;;;24.08;;
18596;SDS011;9428;50.950;6.912;2023-02-12T12:12:36;38.10;;;21.60;;
18596;SDS011;9428;50.950;6.912;2023-02-12T12:15:29;38.08;;;20.25;;
18596;SDS011;9428;50.950;6.912;2023-02-12T12:18:37;44.10;;;22.73;;
18596;SDS011;9428;50.950;6.912;2023-02-12T12:21:49;36.15;;;19.73;;
18596;SDS011;9428;50.950;6.912;2023-02-12T12:24:46;32.65;;;17.27;;
18596;SDS011;9428;50.950;6.912;2023-02-12T12:27:40;35.55;;;19.08;;
18596;SDS011;9428;50.950;6.912;2023-02-12T12:30:52;30.63;;;17.70;;
18596;SDS011;9428;50.950;6.912;2023-02-12T12:33:45;29.38;;;15.77;;
18596;SDS011;9428;50.950;6.912;2023-02-12T12:36:38;31.40;;;16.15;;
18596;SDS011;9428;50.950;6.912;2023-02-12T12:39:43;27.52;;;17.15;;
18596;SDS011;9428;50.950;6.912;2023-02-12T12:42:56;34.40;;;17.75;;
18596;SDS011;9428;50.950;6.912;2023-02-12T12:46:06;30.08;;;16.23;;
18596;SDS011;9428;50.950;6.912;2023-02-12T12:49:10;28.45;;;16.42;;
18596;SDS011;9428;50.950;6.912;2023-02-12T12:52:32;31.67;;;16.38;;
18596;SDS011;9428;50.950;6.912;2023-02-12T12:55:42;29.15;;;15.38;;
18596;SDS011;9428;50.950;6.912;2023-02-12T12:58:58;26.27;;;15.48;;
18596;SDS011;9428;50.950;6.912;2023-02-12T13:02:07;29.05;;;14.73;;
18596;SDS011;9428;50.950;6.912;2023-02-12T13:08:57;25.85;;;13.68;;
18596;SDS011;9428;50.950;6.912;2023-02-12T13:12:01;23.13;;;14.25;;
18596;SDS011;9428;50.950;6.912;2023-02-12T13:15:04;28.73;;;15.32;;
18596;SDS011;9428;50.950;6.912;2023-02-12T13:18:03;32.40;;;16.15;;
18596;SDS011;9428;50.950;6.912;2023-02-12T13:21:04;26.58;;;12.98;;
18596;SDS011;9428;50.950;6.912;2023-02-12T13:24:00;48.00;;;24.52;;
18596;SDS011;9428;50.950;6.912;2023-02-12T13:26:51;38.90;;;21.27;;
18596;SDS011;9428;50.950;6.912;2023-02-12T13:29:41;37.25;;;20.00;;
18596;SDS011;9428;50.950;6.912;2023-02-12T13:32:33;33.75;;;17.83;;
18596;SDS011;9428;50.950;6.912;2023-02-12T13:35:25;30.42;;;15.52;;
18596;SDS011;9428;50.950;6.912;2023-02-12T13:38:16;34.92;;;15.85;;
18596;SDS011;9428;50.950;6.912;2023-02-12T13:41:11;28.20;;;14.82;;
18596;SDS011;9428;50.950;6.912;2023-02-12T13:44:04;26.88;;;14.50;;
18596;SDS011;9428;50.950;6.912;2023-02-12T13:47:00;31.75;;;14.90;;
18596;SDS011;9428;50.950;6.912;2023-02-12T13:49:56;25.48;;;14.90;;
18596;SDS011;9428;50.950;6.912;2023-02-12T13:52:52;25.52;;;14.23;;
18596;SDS011;9428;50.950;6.912;2023-02-12T13:55:46;34.00;;;16.88;;
18596;SDS011;9428;50.950;6.912;2023-02-12T13:58:49;37.45;;;20.95;;
18596;SDS011;9428;50.950;6.912;2023-02-12T14:01:39;31.60;;;16.30;;
18596;SDS011;9428;50.950;6.912;2023-02-12T14:04:30;32.92;;;16.45;;
18596;SDS011;9428;50.950;6.912;2023-02-12T14:07:19;27.40;;;15.23;;
18596;SDS011;9428;50.950;6.912;2023-02-12T14:10:09;29.60;;;15.15;;
18596;SDS011;9428;50.950;6.912;2023-02-12T14:13:11;27.33;;;14.93;;
18596;SDS011;9428;50.950;6.912;2023-02-12T14:18:54;32.55;;;17.83;;
18596;SDS011;9428;50.950;6.912;2023-02-12T14:25:46;21.95;;;12.32;;
18596;SDS011;9428;50.950;6.912;2023-02-12T14:28:44;29.85;;;15.60;;
18596;SDS011;9428;50.950;6.912;2023-02-12T14:31:36;31.05;;;15.20;;
18596;SDS011;9428;50.950;6.912;2023-02-12T14:37:39;23.67;;;13.98;;
18596;SDS011;9428;50.950;6.912;2023-02-12T14:40:35;23.13;;;13.85;;
18596;SDS011;9428;50.950;6.912;2023-02-12T14:43:26;27.27;;;14.35;;
18596;SDS011;9428;50.950;6.912;2023-02-12T14:49:31;42.80;;;20.92;;
18596;SDS011;9428;50.950;6.912;2023-02-12T14:52:21;39.63;;;21.67;;
18596;SDS011;9428;50.950;6.912;2023-02-12T14:55:17;31.17;;;18.35;;
18596;SDS011;9428;50.950;6.912;2023-02-12T14:58:14;28.83;;;16.50;;
18596;SDS011;9428;50.950;6.912;2023-02-12T15:01:04;37.38;;;20.15;;
18596;SDS011;9428;50.950;6.912;2023-02-12T15:03:53;32.92;;;18.98;;
18596;SDS011;9428;50.950;6.912;2023-02-12T15:06:47;32.75;;;18.38;;
18596;SDS011;9428;50.950;6.912;2023-02-12T15:09:42;29.92;;;17.42;;
18596;SDS011;9428;50.950;6.912;2023-02-12T15:12:33;29.48;;;17.85;;
18596;SDS011;9428;50.950;6.912;2023-02-12T15:15:24;29.17;;;17.23;;
18596;SDS011;9428;50.950;6.912;2023-02-12T15:18:18;22.67;;;13.85;;
18596;SDS011;9428;50.950;6.912;2023-02-12T15:21:13;29.38;;;16.42;;
18596;SDS011;9428;50.950;6.912;2023-02-12T15:24:07;32.33;;;16.23;;
18596;SDS011;9428;50.950;6.912;2023-02-12T15:26:57;25.63;;;12.80;;
18596;SDS011;9428;50.950;6.912;2023-02-12T15:29:46;23.38;;;14.60;;
18596;SDS011;9428;50.950;6.912;2023-02-12T15:32:35;25.52;;;13.38;;
18596;SDS011;9428;50.950;6.912;2023-02-12T15:35:25;22.67;;;13.15;;
18596;SDS011;9428;50.950;6.912;2023-02-12T15:38:17;33.05;;;17.65;;
18596;SDS011;9428;50.950;6.912;2023-02-12T15:41:22;26.25;;;15.00;;
18596;SDS011;9428;50.950;6.912;2023-02-12T15:44:20;22.92;;;13.63;;
18596;SDS011;9428;50.950;6.912;2023-02-12T15:47:10;27.92;;;13.82;;
18596;SDS011;9428;50.950;6.912;2023-02-12T15:50:00;22.95;;;12.23;;
18596;SDS011;9428;50.950;6.912;2023-02-12T15:52:48;18.70;;;12.25;;
18596;SDS011;9428;50.950;6.912;2023-02-12T15:55:37;18.00;;;10.35;;
18596;SDS011;9428;50.950;6.912;2023-02-12T15:58:28;20.55;;;12.05;;
18596;SDS011;9428;50.950;6.912;2023-02-12T16:01:19;41.83;;;21.77;;
18596;SDS011;9428;50.950;6.912;2023-02-12T16:04:09;23.48;;;14.57;;
18596;SDS011;9428;50.950;6.912;2023-02-12T16:06:57;21.58;;;11.70;;
18596;SDS011;9428;50.950;6.912;2023-02-12T16:09:45;17.13;;;10.80;;
18596;SDS011;9428;50.950;6.912;2023-02-12T16:12:34;18.90;;;10.45;;
18596;SDS011;9428;50.950;6.912;2023-02-12T16:15:24;16.52;;;9.40;;
18596;SDS011;9428;50.950;6.912;2023-02-12T16:18:25;14.38;;;9.60;;
18596;SDS011;9428;50.950;6.912;2023-02-12T16:21:13;13.90;;;9.32;;
18596;SDS011;9428;50.950;6.912;2023-02-12T16:24:02;14.23;;;9.63;;
18596;SDS011;9428;50.950;6.912;2023-02-12T16:26:51;15.27;;;10.20;;
18596;SDS011;9428;50.950;6.912;2023-02-12T16:29:43;16.15;;;9.32;;
18596;SDS011;9428;50.950;6.912;2023-02-12T16:32:33;16.30;;;9.90;;
18596;SDS011;9428;50.950;6.912;2023-02-12T16:35:27;15.63;;;9.55;;
18596;SDS011;9428;50.950;6.912;2023-02-12T16:41:32;16.15;;;9.52;;
18596;SDS011;9428;50.950;6.912;2023-02-12T16:44:35;18.38;;;10.57;;
18596;SDS011;9428;50.950;6.912;2023-02-12T16:47:23;20.58;;;10.95;;
18596;SDS011;9428;50.950;6.912;2023-02-12T16:50:13;22.25;;;11.75;;
18596;SDS011;9428;50.950;6.912;2023-02-12T16:53:03;18.33;;;10.70;;
18596;SDS011;9428;50.950;6.912;2023-02-12T16:55:52;18.48;;;10.93;;
18596;SDS011;9428;50.950;6.912;2023-02-12T16:58:40;19.40;;;10.70;;
18596;SDS011;9428;50.950;6.912;2023-02-12T17:01:27;19.23;;;11.38;;
18596;SDS011;9428;50.950;6.912;2023-02-12T17:04:17;19.83;;;11.50;;
18596;SDS011;9428;50.950;6.912;2023-02-12T17:07:08;18.95;;;10.93;;
18596;SDS011;9428;50.950;6.912;2023-02-12T17:10:10;17.77;;;10.70;;
18596;SDS011;9428;50.950;6.912;2023-02-12T17:12:58;18.92;;;10.93;;
18596;SDS011;9428;50.950;6.912;2023-02-12T17:15:47;16.45;;;10.52;;
18596;SDS011;9428;50.950;6.912;2023-02-12T17:18:37;19.55;;;9.73;;
18596;SDS011;9428;50.950;6.912;2023-02-12T17:21:24;16.17;;;9.88;;
18596;SDS011;9428;50.950;6.912;2023-02-12T17:24:15;20.85;;;10.05;;
18596;SDS011;9428;50.950;6.912;2023-02-12T17:27:08;15.50;;;9.90;;
18596;SDS011;9428;50.950;6.912;2023-02-12T17:29:56;19.67;;;10.57;;
18596;SDS011;9428;50.950;6.912;2023-02-12T17:32:46;18.52;;;10.73;;
18596;SDS011;9428;50.950;6.912;2023-02-12T17:35:33;17.20;;;9.73;;